sensor_id;sensor_type;location;lat;lon;timestamp;P1;durP1;ratioP1;P2;durP2;ratioP2
22160;SDS011;49035;48.812;11.762;2023-03-26T00:01:00;2.90;;;1.03;;
22160;SDS011;49035;48.812;11.762;2023-03-26T00:03:29;1.80;;;1.00;;
22160;SDS011;49035;48.812;11.762;2023-03-26T00:06:03;1.23;;;0.80;;
22160;SDS011;49035;48.812;11.762;2023-03-26T00:08:32;2.27;;;1.00;;
22160;SDS011;49035;48.812;11.762;2023-03-26T00:10:59;3.50;;;1.10;;
22160;SDS011;49035;48.812;11.762;2023-03-26T00:13:24;4.07;;;1.33;;
22160;SDS011;49035;48.812;11.762;2023-03-26T00:15:50;5.13;;;1.20;;
22160;SDS011;49035;48.812;11.762;2023-03-26T00:18:16;2.70;;;0.90;;
22160;SDS011;49035;48.812;11.762;2023-03-26T00:20:46;2.40;;;1.20;;
22160;SDS011;49035;48.812;11.762;2023-03-26T00:23:11;2.17;;;0.97;;
22160;SDS011;49035;48.812;11.762;2023-03-26T00:25:38;3.17;;;1.10;;
22160;SDS011;49035;48.812;11.762;2023-03-26T00:28:05;2.37;;;1.27;;
22160;SDS011;49035;48.812;11.762;2023-03-26T00:30:32;2.43;;;1.03;;
22160;SDS011;49035;48.812;11.762;2023-03-26T00:32:59;4.17;;;1.10;;
22160;SDS011;49035;48.812;11.762;2023-03-26T00:35:25;4.97;;;1.30;;
22160;SDS011;49035;48.812;11.762;2023-03-26T00:37:53;2.20;;;1.00;;
22160;SDS011;49035;48.812;11.762;2023-03-26T00:40:19;5.60;;;1.17;;
22160;SDS011;49035;48.812;11.762;2023-03-26T00:42:45;2.07;;;1.20;;
22160;SDS011;49035;48.812;11.762;2023-03-26T00:45:10;5.20;;;1.07;;
22160;SDS011;49035;48.812;11.762;2023-03-26T00:47:36;1.67;;;0.83;;
22160;SDS011;49035;48.812;11.762;2023-03-26T00:50:04;3.53;;;1.10;;
22160;SDS011;49035;48.812;11.762;2023-03-26T00:52:30;1.23;;;1.03;;
22160;SDS011;49035;48.812;11.762;2023-03-26T00:54:56;3.90;;;1.03;;
22160;SDS011;49035;48.812;11.762;2023-03-26T00:57:21;2.53;;;1.47;;
22160;SDS011;49035;48.812;11.762;2023-03-26T00:59:47;4.17;;;1.10;;
22160;SDS011;49035;48.812;11.762;2023-03-26T01:02:14;3.07;;;1.10;;
22160;SDS011;49035;48.812;11.762;2023-03-26T01:04:46;2.17;;;1.17;;
22160;SDS011;49035;48.812;11.762;2023-03-26T01:07:19;5.07;;;1.00;;
22160;SDS011;49035;48.812;11.762;2023-03-26T01:09:52;3.53;;;1.43;;
22160;SDS011;49035;48.812;11.762;2023-03-26T01:12:24;2.83;;;1.30;;
22160;SDS011;49035;48.812;11.762;2023-03-26T01:14:53;2.63;;;1.23;;
22160;SDS011;49035;48.812;11.762;2023-03-26T01:17:20;2.63;;;1.07;;
22160;SDS011;49035;48.812;11.762;2023-03-26T01:19:48;5.37;;;1.30;;
22160;SDS011;49035;48.812;11.762;2023-03-26T01:22:20;3.57;;;1.10;;
22160;SDS011;49035;48.812;11.762;2023-03-26T01:24:50;4.33;;;1.23;;
22160;SDS011;49035;48.812;11.762;2023-03-26T01:29:55;1.43;;;0.87;;
22160;SDS011;49035;48.812;11.762;2023-03-26T01:44:09;5.20;;;1.20;;
22160;SDS011;49035;48.812;11.762;2023-03-26T01:49:08;3.53;;;1.00;;
22160;SDS011;49035;48.812;11.762;2023-03-26T01:51:37;3.43;;;1.10;;
22160;SDS011;49035;48.812;11.762;2023-03-26T01:54:05;3.13;;;0.97;;
22160;SDS011;49035;48.812;11.762;2023-03-26T02:04:51;1.23;;;1.13;;
22160;SDS011;49035;48.812;11.762;2023-03-26T02:07:26;4.73;;;1.10;;
22160;SDS011;49035;48.812;11.762;2023-03-26T02:10:19;4.20;;;1.00;;
22160;SDS011;49035;48.812;11.762;2023-03-26T02:12:52;4.97;;;1.30;;
22160;SDS011;49035;48.812;11.762;2023-03-26T02:15:18;5.93;;;1.30;;
22160;SDS011;49035;48.812;11.762;2023-03-26T02:17:44;1.73;;;1.10;;
22160;SDS011;49035;48.812;11.762;2023-03-26T02:20:11;3.13;;;1.10;;
22160;SDS011;49035;48.812;11.762;2023-03-26T02:22:38;2.27;;;0.90;;
22160;SDS011;49035;48.812;11.762;2023-03-26T02:25:09;3.07;;;1.00;;
22160;SDS011;49035;48.812;11.762;2023-03-26T02:27:37;2.50;;;1.10;;
22160;SDS011;49035;48.812;11.762;2023-03-26T02:30:03;3.27;;;1.10;;
22160;SDS011;49035;48.812;11.762;2023-03-26T02:32:30;2.23;;;1.20;;
22160;SDS011;49035;48.812;11.762;2023-03-26T02:34:56;2.47;;;1.23;;
22160;SDS011;49035;48.812;11.762;2023-03-26T02:37:22;2.03;;;1.23;;
22160;SDS011;49035;48.812;11.762;2023-03-26T02:39:47;3.40;;;1.20;;
22160;SDS011;49035;48.812;11.762;2023-03-26T02:42:13;5.67;;;1.47;;
22160;SDS011;49035;48.812;11.762;2023-03-26T02:44:40;2.20;;;1.00;;
22160;SDS011;49035;48.812;11.762;2023-03-26T02:47:05;2.50;;;1.20;;
22160;SDS011;49035;48.812;11.762;2023-03-26T02:49:31;3.03;;;1.60;;
22160;SDS011;49035;48.812;11.762;2023-03-26T02:51:58;2.53;;;1.20;;
22160;SDS011;49035;48.812;11.762;2023-03-26T02:54:24;2.10;;;1.07;;
22160;SDS011;49035;48.812;11.762;2023-03-26T02:56:49;2.53;;;1.53;;
22160;SDS011;49035;48.812;11.762;2023-03-26T02:59:15;2.87;;;1.20;;
22160;SDS011;49035;48.812;11.762;2023-03-26T03:01:41;5.43;;;1.60;;
22160;SDS011;49035;48.812;11.762;2023-03-26T03:04:08;4.70;;;1.50;;
22160;SDS011;49035;48.812;11.762;2023-03-26T03:06:37;5.17;;;1.40;;
22160;SDS011;49035;48.812;11.762;2023-03-26T03:09:04;3.60;;;1.40;;
22160;SDS011;49035;48.812;11.762;2023-03-26T03:11:32;2.40;;;1.73;;
22160;SDS011;49035;48.812;11.762;2023-03-26T03:13:58;4.07;;;1.70;;
22160;SDS011;49035;48.812;11.762;2023-03-26T03:16:24;3.53;;;2.07;;
22160;SDS011;49035;48.812;11.762;2023-03-26T03:18:50;7.40;;;2.20;;
22160;SDS011;49035;48.812;11.762;2023-03-26T03:21:24;4.27;;;1.80;;
22160;SDS011;49035;48.812;11.762;2023-03-26T03:23:54;5.73;;;2.10;;
22160;SDS011;49035;48.812;11.762;2023-03-26T03:26:21;4.47;;;2.20;;
22160;SDS011;49035;48.812;11.762;2023-03-26T03:28:51;6.67;;;2.00;;
22160;SDS011;49035;48.812;11.762;2023-03-26T03:31:20;4.57;;;2.47;;
22160;SDS011;49035;48.812;11.762;2023-03-26T03:33:46;3.50;;;2.30;;
22160;SDS011;49035;48.812;11.762;2023-03-26T03:36:13;7.00;;;2.47;;
22160;SDS011;49035;48.812;11.762;2023-03-26T03:38:42;6.20;;;2.00;;
22160;SDS011;49035;48.812;11.762;2023-03-26T03:41:07;5.43;;;2.20;;
22160;SDS011;49035;48.812;11.762;2023-03-26T03:43:33;4.10;;;2.03;;
22160;SDS011;49035;48.812;11.762;2023-03-26T03:45:59;4.00;;;2.00;;
22160;SDS011;49035;48.812;11.762;2023-03-26T03:48:25;8.17;;;2.57;;
22160;SDS011;49035;48.812;11.762;2023-03-26T03:50:52;2.93;;;1.90;;
22160;SDS011;49035;48.812;11.762;2023-03-26T03:53:18;3.73;;;2.20;;
22160;SDS011;49035;48.812;11.762;2023-03-26T03:55:44;4.13;;;2.10;;
22160;SDS011;49035;48.812;11.762;2023-03-26T03:58:17;4.03;;;1.90;;
22160;SDS011;49035;48.812;11.762;2023-03-26T04:00:50;4.80;;;2.50;;
22160;SDS011;49035;48.812;11.762;2023-03-26T04:03:16;5.07;;;2.00;;
22160;SDS011;49035;48.812;11.762;2023-03-26T04:05:43;6.17;;;2.00;;
22160;SDS011;49035;48.812;11.762;2023-03-26T04:08:18;3.60;;;2.00;;
22160;SDS011;49035;48.812;11.762;2023-03-26T04:10:48;3.17;;;2.10;;
22160;SDS011;49035;48.812;11.762;2023-03-26T04:13:15;4.80;;;2.50;;
22160;SDS011;49035;48.812;11.762;2023-03-26T04:15:41;3.73;;;2.07;;
22160;SDS011;49035;48.812;11.762;2023-03-26T04:18:07;6.53;;;2.30;;
22160;SDS011;49035;48.812;11.762;2023-03-26T04:20:40;4.03;;;1.80;;
22160;SDS011;49035;48.812;11.762;2023-03-26T04:23:10;3.00;;;1.77;;
22160;SDS011;49035;48.812;11.762;2023-03-26T04:25:38;3.57;;;1.63;;
22160;SDS011;49035;48.812;11.762;2023-03-26T04:28:12;6.47;;;1.80;;
22160;SDS011;49035;48.812;11.762;2023-03-26T04:30:50;2.50;;;1.80;;
22160;SDS011;49035;48.812;11.762;2023-03-26T04:33:18;3.50;;;1.80;;
22160;SDS011;49035;48.812;11.762;2023-03-26T04:35:45;2.90;;;2.03;;
22160;SDS011;49035;48.812;11.762;2023-03-26T04:38:12;6.20;;;1.87;;
22160;SDS011;49035;48.812;11.762;2023-03-26T04:40:41;4.70;;;1.83;;
22160;SDS011;49035;48.812;11.762;2023-03-26T04:43:10;3.73;;;2.07;;
22160;SDS011;49035;48.812;11.762;2023-03-26T04:45:36;5.33;;;1.83;;
22160;SDS011;49035;48.812;11.762;2023-03-26T04:48:02;4.47;;;2.00;;
22160;SDS011;49035;48.812;11.762;2023-03-26T04:50:28;3.47;;;1.80;;
22160;SDS011;49035;48.812;11.762;2023-03-26T04:52:54;6.50;;;1.80;;
22160;SDS011;49035;48.812;11.762;2023-03-26T04:55:32;2.97;;;1.70;;
22160;SDS011;49035;48.812;11.762;2023-03-26T04:58:03;3.37;;;1.80;;
22160;SDS011;49035;48.812;11.762;2023-03-26T05:00:30;3.30;;;1.80;;
22160;SDS011;49035;48.812;11.762;2023-03-26T05:02:56;4.13;;;2.07;;
22160;SDS011;49035;48.812;11.762;2023-03-26T05:05:25;3.50;;;1.90;;
22160;SDS011;49035;48.812;11.762;2023-03-26T05:07:53;4.17;;;1.97;;
22160;SDS011;49035;48.812;11.762;2023-03-26T05:10:19;3.50;;;1.67;;
22160;SDS011;49035;48.812;11.762;2023-03-26T05:12:44;3.10;;;1.77;;
22160;SDS011;49035;48.812;11.762;2023-03-26T05:15:11;3.63;;;1.70;;
22160;SDS011;49035;48.812;11.762;2023-03-26T05:17:37;3.57;;;1.97;;
22160;SDS011;49035;48.812;11.762;2023-03-26T05:20:05;2.57;;;1.73;;
22160;SDS011;49035;48.812;11.762;2023-03-26T05:22:38;3.30;;;1.83;;
22160;SDS011;49035;48.812;11.762;2023-03-26T05:25:04;4.73;;;2.10;;
22160;SDS011;49035;48.812;11.762;2023-03-26T05:27:30;5.10;;;1.90;;
22160;SDS011;49035;48.812;11.762;2023-03-26T05:30:00;3.70;;;2.20;;
22160;SDS011;49035;48.812;11.762;2023-03-26T05:32:29;5.03;;;2.27;;
22160;SDS011;49035;48.812;11.762;2023-03-26T05:34:55;3.40;;;2.27;;
22160;SDS011;49035;48.812;11.762;2023-03-26T05:37:21;4.00;;;2.40;;
22160;SDS011;49035;48.812;11.762;2023-03-26T05:39:51;4.47;;;2.20;;
22160;SDS011;49035;48.812;11.762;2023-03-26T05:42:18;5.80;;;2.27;;
22160;SDS011;49035;48.812;11.762;2023-03-26T05:44:43;6.50;;;2.40;;
22160;SDS011;49035;48.812;11.762;2023-03-26T05:47:09;3.07;;;2.50;;
22160;SDS011;49035;48.812;11.762;2023-03-26T05:49:34;4.60;;;2.20;;
22160;SDS011;49035;48.812;11.762;2023-03-26T05:52:00;6.03;;;2.33;;
22160;SDS011;49035;48.812;11.762;2023-03-26T05:54:25;5.17;;;2.60;;
22160;SDS011;49035;48.812;11.762;2023-03-26T05:56:51;5.30;;;2.50;;
22160;SDS011;49035;48.812;11.762;2023-03-26T05:59:17;6.60;;;2.60;;
22160;SDS011;49035;48.812;11.762;2023-03-26T06:01:43;3.97;;;2.20;;
22160;SDS011;49035;48.812;11.762;2023-03-26T06:04:11;8.73;;;2.30;;
22160;SDS011;49035;48.812;11.762;2023-03-26T06:06:37;5.20;;;3.30;;
22160;SDS011;49035;48.812;11.762;2023-03-26T06:09:03;4.20;;;2.00;;
22160;SDS011;49035;48.812;11.762;2023-03-26T06:11:30;10.07;;;2.60;;
22160;SDS011;49035;48.812;11.762;2023-03-26T06:13:57;7.00;;;2.47;;
22160;SDS011;49035;48.812;11.762;2023-03-26T06:16:23;4.07;;;2.00;;
22160;SDS011;49035;48.812;11.762;2023-03-26T06:18:48;4.27;;;2.00;;
22160;SDS011;49035;48.812;11.762;2023-03-26T06:21:15;3.23;;;2.13;;
22160;SDS011;49035;48.812;11.762;2023-03-26T06:23:42;3.03;;;1.93;;
22160;SDS011;49035;48.812;11.762;2023-03-26T06:26:07;5.53;;;2.23;;
22160;SDS011;49035;48.812;11.762;2023-03-26T06:28:33;3.63;;;1.97;;
22160;SDS011;49035;48.812;11.762;2023-03-26T06:31:00;4.70;;;2.03;;
22160;SDS011;49035;48.812;11.762;2023-03-26T06:33:25;5.20;;;2.07;;
22160;SDS011;49035;48.812;11.762;2023-03-26T06:35:52;3.40;;;2.03;;
22160;SDS011;49035;48.812;11.762;2023-03-26T06:38:17;4.70;;;2.00;;
22160;SDS011;49035;48.812;11.762;2023-03-26T06:40:43;5.93;;;2.30;;
22160;SDS011;49035;48.812;11.762;2023-03-26T06:43:08;4.27;;;2.30;;
22160;SDS011;49035;48.812;11.762;2023-03-26T06:45:34;3.97;;;2.10;;
22160;SDS011;49035;48.812;11.762;2023-03-26T06:48:00;3.10;;;1.80;;
22160;SDS011;49035;48.812;11.762;2023-03-26T06:50:26;6.37;;;2.00;;
22160;SDS011;49035;48.812;11.762;2023-03-26T06:52:55;4.33;;;2.47;;
22160;SDS011;49035;48.812;11.762;2023-03-26T06:55:20;4.63;;;1.70;;
22160;SDS011;49035;48.812;11.762;2023-03-26T06:57:47;3.57;;;1.87;;
22160;SDS011;49035;48.812;11.762;2023-03-26T07:00:17;3.63;;;2.07;;
22160;SDS011;49035;48.812;11.762;2023-03-26T07:02:43;4.97;;;1.63;;
22160;SDS011;49035;48.812;11.762;2023-03-26T07:05:09;3.63;;;1.73;;
22160;SDS011;49035;48.812;11.762;2023-03-26T07:07:35;5.50;;;2.10;;
22160;SDS011;49035;48.812;11.762;2023-03-26T07:10:02;4.70;;;2.00;;
22160;SDS011;49035;48.812;11.762;2023-03-26T07:12:27;3.83;;;2.10;;
22160;SDS011;49035;48.812;11.762;2023-03-26T07:14:53;3.37;;;1.73;;
22160;SDS011;49035;48.812;11.762;2023-03-26T07:17:19;5.03;;;2.13;;
22160;SDS011;49035;48.812;11.762;2023-03-26T07:19:44;3.77;;;2.10;;
22160;SDS011;49035;48.812;11.762;2023-03-26T07:22:14;4.50;;;2.10;;
22160;SDS011;49035;48.812;11.762;2023-03-26T07:24:45;3.83;;;2.30;;
22160;SDS011;49035;48.812;11.762;2023-03-26T07:32:30;4.57;;;1.80;;
22160;SDS011;49035;48.812;11.762;2023-03-26T07:35:02;5.00;;;1.70;;
22160;SDS011;49035;48.812;11.762;2023-03-26T07:47:54;4.37;;;1.83;;
22160;SDS011;49035;48.812;11.762;2023-03-26T07:50:22;2.73;;;1.57;;
22160;SDS011;49035;48.812;11.762;2023-03-26T07:52:49;3.47;;;1.80;;
22160;SDS011;49035;48.812;11.762;2023-03-26T07:55:15;4.40;;;1.57;;
22160;SDS011;49035;48.812;11.762;2023-03-26T07:57:53;7.00;;;2.00;;
22160;SDS011;49035;48.812;11.762;2023-03-26T08:00:34;3.43;;;1.70;;
22160;SDS011;49035;48.812;11.762;2023-03-26T08:03:14;1.67;;;1.38;;
22160;SDS011;49035;48.812;11.762;2023-03-26T08:19:10;6.15;;;2.55;;
22160;SDS011;49035;48.812;11.762;2023-03-26T08:22:05;6.60;;;2.63;;
22160;SDS011;49035;48.812;11.762;2023-03-26T08:27:36;4.47;;;2.00;;
22160;SDS011;49035;48.812;11.762;2023-03-26T08:30:07;9.15;;;1.90;;
22160;SDS011;49035;48.812;11.762;2023-03-26T08:32:40;6.63;;;1.70;;
22160;SDS011;49035;48.812;11.762;2023-03-26T08:35:10;3.45;;;1.92;;
22160;SDS011;49035;48.812;11.762;2023-03-26T08:37:37;2.97;;;1.60;;
22160;SDS011;49035;48.812;11.762;2023-03-26T08:40:03;3.47;;;1.98;;
22160;SDS011;49035;48.812;11.762;2023-03-26T08:42:38;6.43;;;1.80;;
22160;SDS011;49035;48.812;11.762;2023-03-26T08:59:38;4.35;;;1.92;;
22160;SDS011;49035;48.812;11.762;2023-03-26T09:02:33;7.15;;;2.33;;
22160;SDS011;49035;48.812;11.762;2023-03-26T09:05:28;5.82;;;2.55;;
22160;SDS011;49035;48.812;11.762;2023-03-26T09:08:09;8.70;;;2.70;;
22160;SDS011;49035;48.812;11.762;2023-03-26T09:16:54;13.23;;;2.47;;
22160;SDS011;49035;48.812;11.762;2023-03-26T09:25:09;11.53;;;2.70;;
22160;SDS011;49035;48.812;11.762;2023-03-26T09:30:35;6.38;;;2.88;;
22160;SDS011;49035;48.812;11.762;2023-03-26T09:33:48;5.05;;;2.42;;
22160;SDS011;49035;48.812;11.762;2023-03-26T09:36:31;7.15;;;2.75;;
22160;SDS011;49035;48.812;11.762;2023-03-26T09:52:56;8.57;;;2.38;;
22160;SDS011;49035;48.812;11.762;2023-03-26T10:01:06;8.30;;;3.05;;
22160;SDS011;49035;48.812;11.762;2023-03-26T10:06:43;7.35;;;2.47;;
22160;SDS011;49035;48.812;11.762;2023-03-26T10:09:28;12.20;;;4.17;;
22160;SDS011;49035;48.812;11.762;2023-03-26T10:14:57;12.20;;;6.53;;
22160;SDS011;49035;48.812;11.762;2023-03-26T10:17:41;10.13;;;3.23;;
22160;SDS011;49035;48.812;11.762;2023-03-26T10:20:22;4.80;;;2.73;;
22160;SDS011;49035;48.812;11.762;2023-03-26T10:23:21;7.67;;;2.47;;
22160;SDS011;49035;48.812;11.762;2023-03-26T10:26:01;5.25;;;2.40;;
22160;SDS011;49035;48.812;11.762;2023-03-26T10:37:07;9.20;;;3.47;;
22160;SDS011;49035;48.812;11.762;2023-03-26T10:56:35;9.83;;;2.63;;
22160;SDS011;49035;48.812;11.762;2023-03-26T10:59:12;11.00;;;2.67;;
22160;SDS011;49035;48.812;11.762;2023-03-26T11:01:45;5.70;;;2.33;;
22160;SDS011;49035;48.812;11.762;2023-03-26T11:04:26;6.70;;;1.80;;
22160;SDS011;49035;48.812;11.762;2023-03-26T11:07:09;7.20;;;2.25;;
22160;SDS011;49035;48.812;11.762;2023-03-26T11:09:47;5.53;;;1.90;;
22160;SDS011;49035;48.812;11.762;2023-03-26T11:12:30;7.00;;;2.40;;
22160;SDS011;49035;48.812;11.762;2023-03-26T11:15:29;6.22;;;2.28;;
22160;SDS011;49035;48.812;11.762;2023-03-26T11:23:32;3.08;;;1.60;;
22160;SDS011;49035;48.812;11.762;2023-03-26T11:34:26;3.78;;;2.22;;
22160;SDS011;49035;48.812;11.762;2023-03-26T11:36:57;3.92;;;2.20;;
22160;SDS011;49035;48.812;11.762;2023-03-26T11:39:29;3.90;;;1.70;;
22160;SDS011;49035;48.812;11.762;2023-03-26T11:42:05;3.30;;;2.10;;
22160;SDS011;49035;48.812;11.762;2023-03-26T11:44:57;5.00;;;1.75;;
22160;SDS011;49035;48.812;11.762;2023-03-26T11:47:32;7.07;;;1.83;;
22160;SDS011;49035;48.812;11.762;2023-03-26T11:50:06;3.88;;;1.73;;
22160;SDS011;49035;48.812;11.762;2023-03-26T11:52:40;2.80;;;1.50;;
22160;SDS011;49035;48.812;11.762;2023-03-26T11:55:09;9.80;;;1.60;;
22160;SDS011;49035;48.812;11.762;2023-03-26T11:57:36;5.30;;;1.75;;
22160;SDS011;49035;48.812;11.762;2023-03-26T12:00:07;7.18;;;1.92;;
22160;SDS011;49035;48.812;11.762;2023-03-26T12:02:41;3.53;;;1.60;;
22160;SDS011;49035;48.812;11.762;2023-03-26T12:05:19;4.10;;;1.42;;
22160;SDS011;49035;48.812;11.762;2023-03-26T12:07:59;3.23;;;1.87;;
22160;SDS011;49035;48.812;11.762;2023-03-26T12:12:58;8.17;;;1.77;;
22160;SDS011;49035;48.812;11.762;2023-03-26T12:15:26;4.07;;;1.60;;
22160;SDS011;49035;48.812;11.762;2023-03-26T12:17:55;6.78;;;1.92;;
22160;SDS011;49035;48.812;11.762;2023-03-26T12:22:49;4.72;;;1.95;;
22160;SDS011;49035;48.812;11.762;2023-03-26T12:25:26;4.82;;;2.28;;
22160;SDS011;49035;48.812;11.762;2023-03-26T12:28:01;3.60;;;2.88;;
22160;SDS011;49035;48.812;11.762;2023-03-26T12:30:50;5.30;;;2.55;;
22160;SDS011;49035;48.812;11.762;2023-03-26T12:33:23;4.95;;;2.22;;
22160;SDS011;49035;48.812;11.762;2023-03-26T12:35:52;7.47;;;1.83;;
22160;SDS011;49035;48.812;11.762;2023-03-26T12:38:24;7.30;;;1.95;;
22160;SDS011;49035;48.812;11.762;2023-03-26T12:41:16;6.47;;;2.40;;
22160;SDS011;49035;48.812;11.762;2023-03-26T12:43:44;3.25;;;1.70;;
22160;SDS011;49035;48.812;11.762;2023-03-26T12:48:51;2.60;;;1.50;;
22160;SDS011;49035;48.812;11.762;2023-03-26T12:51:25;3.28;;;1.73;;
22160;SDS011;49035;48.812;11.762;2023-03-26T12:53:56;2.65;;;1.60;;
22160;SDS011;49035;48.812;11.762;2023-03-26T12:56:30;4.35;;;2.17;;
22160;SDS011;49035;48.812;11.762;2023-03-26T12:59:25;2.35;;;1.50;;
22160;SDS011;49035;48.812;11.762;2023-03-26T13:18:24;2.75;;;1.58;;
22160;SDS011;49035;48.812;11.762;2023-03-26T13:21:01;1.95;;;1.33;;
22160;SDS011;49035;48.812;11.762;2023-03-26T13:24:02;1.42;;;1.33;;
22160;SDS011;49035;48.812;11.762;2023-03-26T13:26:57;2.28;;;1.48;;
22160;SDS011;49035;48.812;11.762;2023-03-26T13:35:44;2.90;;;1.38;;
22160;SDS011;49035;48.812;11.762;2023-03-26T13:46:21;1.42;;;0.95;;
22160;SDS011;49035;48.812;11.762;2023-03-26T13:49:14;1.50;;;0.70;;
22160;SDS011;49035;48.812;11.762;2023-03-26T13:51:52;0.90;;;0.70;;
22160;SDS011;49035;48.812;11.762;2023-03-26T13:54:31;1.15;;;0.70;;
22160;SDS011;49035;48.812;11.762;2023-03-26T13:57:23;1.25;;;0.60;;
22160;SDS011;49035;48.812;11.762;2023-03-26T14:02:40;1.95;;;0.85;;
22160;SDS011;49035;48.812;11.762;2023-03-26T14:07:39;1.35;;;0.80;;
22160;SDS011;49035;48.812;11.762;2023-03-26T14:10:11;3.63;;;0.85;;
22160;SDS011;49035;48.812;11.762;2023-03-26T14:12:43;1.33;;;0.90;;
22160;SDS011;49035;48.812;11.762;2023-03-26T14:20:59;1.13;;;0.80;;
22160;SDS011;49035;48.812;11.762;2023-03-26T14:23:38;0.75;;;0.75;;
22160;SDS011;49035;48.812;11.762;2023-03-26T14:26:39;1.45;;;0.75;;
22160;SDS011;49035;48.812;11.762;2023-03-26T14:29:13;2.83;;;0.80;;
22160;SDS011;49035;48.812;11.762;2023-03-26T14:37:26;2.40;;;2.00;;
22160;SDS011;49035;48.812;11.762;2023-03-26T14:45:27;2.05;;;0.82;;
22160;SDS011;49035;48.812;11.762;2023-03-26T14:51:22;0.73;;;0.70;;
22160;SDS011;49035;48.812;11.762;2023-03-26T14:54:27;2.85;;;0.77;;
22160;SDS011;49035;48.812;11.762;2023-03-26T15:30:15;1.02;;;0.63;;
22160;SDS011;49035;48.812;11.762;2023-03-26T15:33:25;0.65;;;0.52;;
22160;SDS011;49035;48.812;11.762;2023-03-26T15:42:25;2.35;;;0.98;;
22160;SDS011;49035;48.812;11.762;2023-03-26T15:48:05;2.33;;;1.52;;
22160;SDS011;49035;48.812;11.762;2023-03-26T15:50:37;0.80;;;0.70;;
22160;SDS011;49035;48.812;11.762;2023-03-26T15:58:45;1.63;;;1.10;;
22160;SDS011;49035;48.812;11.762;2023-03-26T16:07:48;0.63;;;0.60;;
22160;SDS011;49035;48.812;11.762;2023-03-26T16:18:24;0.68;;;0.68;;
22160;SDS011;49035;48.812;11.762;2023-03-26T16:23:54;2.38;;;0.90;;
22160;SDS011;49035;48.812;11.762;2023-03-26T16:35:00;2.58;;;1.00;;
22160;SDS011;49035;48.812;11.762;2023-03-26T16:37:49;3.95;;;2.00;;
22160;SDS011;49035;48.812;11.762;2023-03-26T16:40:33;1.35;;;1.20;;
22160;SDS011;49035;48.812;11.762;2023-03-26T16:43:27;2.08;;;1.10;;
22160;SDS011;49035;48.812;11.762;2023-03-26T17:02:24;2.65;;;1.20;;
22160;SDS011;49035;48.812;11.762;2023-03-26T17:05:17;1.30;;;0.90;;
22160;SDS011;49035;48.812;11.762;2023-03-26T17:10:18;1.95;;;1.40;;
22160;SDS011;49035;48.812;11.762;2023-03-26T17:12:58;1.65;;;1.20;;
22160;SDS011;49035;48.812;11.762;2023-03-26T17:15:39;2.65;;;1.20;;
22160;SDS011;49035;48.812;11.762;2023-03-26T17:21:03;2.20;;;2.00;;
22160;SDS011;49035;48.812;11.762;2023-03-26T17:26:47;2.35;;;1.98;;
22160;SDS011;49035;48.812;11.762;2023-03-26T17:29:50;3.38;;;1.33;;
22160;SDS011;49035;48.812;11.762;2023-03-26T17:40:53;3.57;;;1.77;;
22160;SDS011;49035;48.812;11.762;2023-03-26T17:51:40;5.00;;;2.40;;
22160;SDS011;49035;48.812;11.762;2023-03-26T17:54:35;2.63;;;2.20;;
22160;SDS011;49035;48.812;11.762;2023-03-26T18:00:04;4.97;;;3.00;;
22160;SDS011;49035;48.812;11.762;2023-03-26T18:02:36;6.00;;;2.90;;
22160;SDS011;49035;48.812;11.762;2023-03-26T18:05:15;2.53;;;1.77;;
22160;SDS011;49035;48.812;11.762;2023-03-26T18:07:58;4.47;;;2.17;;
22160;SDS011;49035;48.812;11.762;2023-03-26T18:19:12;2.93;;;1.10;;
22160;SDS011;49035;48.812;11.762;2023-03-26T18:21:47;1.50;;;1.00;;
22160;SDS011;49035;48.812;11.762;2023-03-26T18:24:18;3.57;;;1.10;;
22160;SDS011;49035;48.812;11.762;2023-03-26T18:26:55;1.33;;;1.20;;
22160;SDS011;49035;48.812;11.762;2023-03-26T18:29:27;4.00;;;1.30;;
22160;SDS011;49035;48.812;11.762;2023-03-26T18:34:55;3.87;;;1.33;;
22160;SDS011;49035;48.812;11.762;2023-03-26T18:37:22;3.50;;;1.40;;
22160;SDS011;49035;48.812;11.762;2023-03-26T18:42:34;4.10;;;1.77;;
22160;SDS011;49035;48.812;11.762;2023-03-26T18:45:02;3.90;;;1.67;;
22160;SDS011;49035;48.812;11.762;2023-03-26T18:47:52;4.03;;;1.17;;
22160;SDS011;49035;48.812;11.762;2023-03-26T18:50:31;1.80;;;1.30;;
22160;SDS011;49035;48.812;11.762;2023-03-26T18:53:00;3.87;;;2.03;;
22160;SDS011;49035;48.812;11.762;2023-03-26T18:55:32;5.13;;;2.50;;
22160;SDS011;49035;48.812;11.762;2023-03-26T18:58:09;5.07;;;2.50;;
22160;SDS011;49035;48.812;11.762;2023-03-26T19:00:57;5.37;;;2.17;;
22160;SDS011;49035;48.812;11.762;2023-03-26T19:03:38;3.97;;;2.00;;
22160;SDS011;49035;48.812;11.762;2023-03-26T19:06:07;2.40;;;1.97;;
22160;SDS011;49035;48.812;11.762;2023-03-26T19:08:36;2.87;;;1.30;;
22160;SDS011;49035;48.812;11.762;2023-03-26T19:11:08;1.83;;;1.00;;
22160;SDS011;49035;48.812;11.762;2023-03-26T19:13:36;1.70;;;1.40;;
22160;SDS011;49035;48.812;11.762;2023-03-26T19:16:14;2.03;;;1.27;;
22160;SDS011;49035;48.812;11.762;2023-03-26T19:18:50;2.67;;;1.47;;
22160;SDS011;49035;48.812;11.762;2023-03-26T19:21:16;1.90;;;1.50;;
22160;SDS011;49035;48.812;11.762;2023-03-26T19:23:44;3.87;;;1.43;;
22160;SDS011;49035;48.812;11.762;2023-03-26T19:26:11;3.80;;;1.40;;
22160;SDS011;49035;48.812;11.762;2023-03-26T19:28:41;2.70;;;1.10;;
22160;SDS011;49035;48.812;11.762;2023-03-26T19:33:56;2.87;;;1.20;;
22160;SDS011;49035;48.812;11.762;2023-03-26T19:36:28;2.20;;;1.30;;
22160;SDS011;49035;48.812;11.762;2023-03-26T19:41:25;3.33;;;1.30;;
22160;SDS011;49035;48.812;11.762;2023-03-26T19:43:52;2.00;;;0.97;;
22160;SDS011;49035;48.812;11.762;2023-03-26T19:46:22;4.33;;;1.10;;
22160;SDS011;49035;48.812;11.762;2023-03-26T19:48:50;2.47;;;1.10;;
22160;SDS011;49035;48.812;11.762;2023-03-26T19:51:21;1.20;;;1.00;;
22160;SDS011;49035;48.812;11.762;2023-03-26T19:54:03;3.87;;;1.10;;
22160;SDS011;49035;48.812;11.762;2023-03-26T19:56:39;4.13;;;1.10;;
22160;SDS011;49035;48.812;11.762;2023-03-26T19:59:05;0.90;;;0.90;;
22160;SDS011;49035;48.812;11.762;2023-03-26T20:01:31;1.00;;;0.90;;
22160;SDS011;49035;48.812;11.762;2023-03-26T20:04:01;1.03;;;0.83;;
22160;SDS011;49035;48.812;11.762;2023-03-26T20:06:30;2.93;;;1.17;;
22160;SDS011;49035;48.812;11.762;2023-03-26T20:08:58;1.27;;;0.97;;
22160;SDS011;49035;48.812;11.762;2023-03-26T20:11:29;1.60;;;1.10;;
22160;SDS011;49035;48.812;11.762;2023-03-26T20:13:57;1.30;;;1.20;;
22160;SDS011;49035;48.812;11.762;2023-03-26T20:16:25;0.90;;;0.90;;
22160;SDS011;49035;48.812;11.762;2023-03-26T20:18:52;1.40;;;1.23;;
22160;SDS011;49035;48.812;11.762;2023-03-26T20:21:21;3.33;;;1.00;;
22160;SDS011;49035;48.812;11.762;2023-03-26T20:23:47;4.37;;;1.10;;
22160;SDS011;49035;48.812;11.762;2023-03-26T20:26:14;1.57;;;1.30;;
22160;SDS011;49035;48.812;11.762;2023-03-26T20:28:40;1.63;;;1.20;;
22160;SDS011;49035;48.812;11.762;2023-03-26T20:31:13;1.50;;;1.20;;
22160;SDS011;49035;48.812;11.762;2023-03-26T20:33:45;1.33;;;1.20;;
22160;SDS011;49035;48.812;11.762;2023-03-26T20:36:13;2.30;;;1.23;;
22160;SDS011;49035;48.812;11.762;2023-03-26T20:38:39;1.20;;;1.10;;
22160;SDS011;49035;48.812;11.762;2023-03-26T20:41:11;1.23;;;1.00;;
22160;SDS011;49035;48.812;11.762;2023-03-26T20:43:42;1.73;;;0.90;;
22160;SDS011;49035;48.812;11.762;2023-03-26T20:46:15;0.80;;;0.80;;
22160;SDS011;49035;48.812;11.762;2023-03-26T20:48:43;0.97;;;0.80;;
22160;SDS011;49035;48.812;11.762;2023-03-26T20:51:09;0.90;;;0.70;;
22160;SDS011;49035;48.812;11.762;2023-03-26T20:53:39;0.70;;;0.70;;